createdAt,value
2022-10-08T00:02:09.537Z,101311.22
2022-10-08T00:04:36.153Z,101316.09
2022-10-08T00:07:02.636Z,101317.97
2022-10-08T00:09:29.057Z,101316.09
2022-10-08T00:11:55.789Z,101311.19
2022-10-08T00:14:23.356Z,101313.22
2022-10-08T00:16:49.763Z,101308.56
2022-10-08T00:19:16.330Z,101311.22
2022-10-08T00:21:44.572Z,101307.03
2022-10-08T00:24:16.191Z,101303.91
2022-10-08T00:26:44.264Z,101306.34
2022-10-08T00:29:13.273Z,101309.13
2022-10-08T00:31:42.287Z,101307.97
2022-10-08T00:34:11.026Z,101291.69
2022-10-08T00:36:38.710Z,101295.50
2022-10-08T00:39:08.011Z,101293.56
2022-10-08T00:41:37.796Z,101291.44
2022-10-08T00:44:43.139Z,101281.97
2022-10-08T00:47:30.076Z,101283.91
2022-10-08T00:49:59.506Z,101271.63
2022-10-08T00:52:29.270Z,101266.41
2022-10-08T00:54:57.079Z,101265.91
2022-10-08T00:57:23.613Z,101265.44
2022-10-08T00:59:50.034Z,101257.84
2022-10-08T01:02:19.240Z,101254.78
2022-10-08T01:04:46.076Z,101251.72
2022-10-08T01:07:26.619Z,101243.47
2022-10-08T01:10:06.023Z,101246.03
2022-10-08T01:13:14.850Z,101247.38
2022-10-08T01:15:47.020Z,101246.25
2022-10-08T01:18:39.658Z,101250.75
2022-10-08T01:21:12.803Z,101237.63
2022-10-08T01:23:59.839Z,101242.78
2022-10-08T01:26:29.241Z,101246.25
2022-10-08T01:29:00.741Z,101247.72
2022-10-08T01:31:30.972Z,101251.13
2022-10-08T01:34:00.470Z,101252.31
2022-10-08T01:36:30.885Z,101254.34
2022-10-08T01:39:01.873Z,101245.88
2022-10-08T01:41:29.715Z,101248.94
2022-10-08T01:44:03.822Z,101234.38
2022-10-08T01:46:31.833Z,101240.16
2022-10-08T01:49:03.217Z,101238.78
2022-10-08T01:51:34.211Z,101248.81
2022-10-08T01:54:05.610Z,101245.31
2022-10-08T01:56:33.269Z,101245.19
2022-10-08T01:59:07.066Z,101247.28
2022-10-08T02:01:39.356Z,101236.66
2022-10-08T02:04:24.315Z,101238.84
2022-10-08T02:06:58.191Z,101236.59
2022-10-08T02:09:26.351Z,101243.44
2022-10-08T02:11:52.887Z,101239.66
2022-10-08T02:14:21.701Z,101242.84
2022-10-08T02:16:51.190Z,101251.38
2022-10-08T02:19:41.587Z,101248.81
2022-10-08T02:22:08.943Z,101244.19
2022-10-08T02:24:43.954Z,101254.28
2022-10-08T02:27:11.759Z,101256.00
2022-10-08T02:29:43.926Z,101246.16
2022-10-08T02:32:16.222Z,101249.00
2022-10-08T02:34:49.477Z,101253.13
2022-10-08T02:37:28.110Z,101250.13
2022-10-08T02:39:59.602Z,101248.06
2022-10-08T02:42:27.506Z,101243.09
2022-10-08T02:44:59.572Z,101247.56
2022-10-08T02:47:29.013Z,101251.13
2022-10-08T02:50:02.580Z,101242.00
2022-10-08T02:52:32.711Z,101244.41
2022-10-08T02:55:01.282Z,101248.06
2022-10-08T02:57:41.212Z,101250.66
2022-10-08T03:00:08.447Z,101245.59
2022-10-08T03:02:41.893Z,101237.25
2022-10-08T03:05:16.827Z,101236.88
2022-10-08T03:07:44.002Z,101240.66
2022-10-08T03:10:11.584Z,101253.97
2022-10-08T03:12:39.104Z,101251.63
2022-10-08T03:15:06.605Z,101254.63
2022-10-08T03:17:36.676Z,101247.72
2022-10-08T03:20:05.901Z,101244.22
2022-10-08T03:22:33.310Z,101253.22
2022-10-08T03:24:59.704Z,101245.44
2022-10-08T03:27:26.103Z,101249.91
2022-10-08T03:29:57.068Z,101245.56
2022-10-08T03:32:24.552Z,101244.06
2022-10-08T03:34:51.353Z,101228.84
2022-10-08T03:37:18.070Z,101230.69
2022-10-08T03:39:44.559Z,101238.53
2022-10-08T03:42:11.310Z,101245.19
2022-10-08T03:44:37.829Z,101257.56
2022-10-08T03:47:04.217Z,101256.66
2022-10-08T03:49:30.615Z,101255.66
2022-10-08T03:51:57.044Z,101254.13
2022-10-08T03:54:23.485Z,101260.09
2022-10-08T03:56:50.014Z,101256.78
2022-10-08T03:59:16.413Z,101263.53
2022-10-08T04:01:42.875Z,101269.38
2022-10-08T04:04:09.307Z,101267.78
2022-10-08T04:06:35.770Z,101264.25
2022-10-08T04:09:02.210Z,101241.63
2022-10-08T04:11:29.058Z,101247.50
2022-10-08T04:13:55.485Z,101254.69
2022-10-08T04:16:21.892Z,101256.88
2022-10-08T04:18:48.440Z,101266.63
2022-10-08T04:21:17.160Z,101257.66
2022-10-08T04:23:44.495Z,101257.06
2022-10-08T04:26:12.518Z,101256.00
2022-10-08T04:28:40.491Z,101258.03
2022-10-08T04:31:10.871Z,101258.34
2022-10-08T04:33:37.784Z,101264.41
2022-10-08T04:36:08.963Z,101274.44
2022-10-08T04:38:35.707Z,101278.53
2022-10-08T04:41:03.041Z,101279.69
2022-10-08T04:43:29.974Z,101274.66
2022-10-08T04:45:56.443Z,101281.59
2022-10-08T04:48:22.874Z,101288.41
2022-10-08T04:50:54.630Z,101296.75
2022-10-08T04:53:21.024Z,101290.06
2022-10-08T04:55:47.456Z,101298.47
2022-10-08T04:58:13.836Z,101298.34
2022-10-08T05:00:40.292Z,101296.28
2022-10-08T05:03:06.730Z,101292.44
2022-10-08T05:05:33.292Z,101290.53
2022-10-08T05:07:59.831Z,101291.94
2022-10-08T05:10:26.231Z,101294.63
2022-10-08T05:12:52.624Z,101291.41
2022-10-08T05:15:19.022Z,101288.59
2022-10-08T05:17:45.402Z,101300.16
2022-10-08T05:20:11.946Z,101294.25
2022-10-08T05:22:38.322Z,101308.72
2022-10-08T05:25:05.159Z,101303.16
2022-10-08T05:27:31.551Z,101304.69
2022-10-08T05:29:57.981Z,101315.34
2022-10-08T05:32:24.368Z,101318.56
2022-10-08T05:34:50.772Z,101320.28
2022-10-08T05:37:17.199Z,101326.91
2022-10-08T05:39:43.731Z,101308.63
2022-10-08T05:42:10.362Z,101310.63
2022-10-08T05:44:37.855Z,101313.66
2022-10-08T05:47:04.535Z,101323.22
2022-10-08T05:49:31.138Z,101323.69
2022-10-08T05:51:57.740Z,101325.25
2022-10-08T05:54:24.184Z,101323.81
2022-10-08T05:56:50.830Z,101331.19
2022-10-08T05:59:20.008Z,101325.50
2022-10-08T06:01:46.535Z,101332.69
2022-10-08T06:04:13.086Z,101330.53
2022-10-08T06:06:41.123Z,101338.00
2022-10-08T06:09:08.759Z,101342.09
2022-10-08T06:11:37.178Z,101342.91
2022-10-08T06:14:05.962Z,101344.31
2022-10-08T06:16:33.029Z,101352.75
2022-10-08T06:19:01.898Z,101352.47
2022-10-08T06:21:29.411Z,101357.81
2022-10-08T06:23:57.732Z,101362.00
2022-10-08T06:26:27.359Z,101355.00
2022-10-08T06:28:56.379Z,101362.00
2022-10-08T06:31:22.983Z,101364.75
2022-10-08T06:33:49.417Z,101365.84
2022-10-08T06:36:25.302Z,101383.13
2022-10-08T06:38:53.230Z,101379.09
2022-10-08T06:41:20.185Z,101387.94
2022-10-08T06:43:46.886Z,101396.09
2022-10-08T06:46:13.954Z,101399.03
2022-10-08T06:48:40.508Z,101392.00
2022-10-08T06:51:12.323Z,101406.41
2022-10-08T06:53:40.022Z,101409.97
2022-10-08T06:56:08.581Z,101413.28
2022-10-08T06:58:35.274Z,101417.16
2022-10-08T07:01:02.517Z,101422.47
2022-10-08T07:03:29.047Z,101421.31
2022-10-08T07:05:55.493Z,101424.16
2022-10-08T07:08:21.891Z,101425.84
2022-10-08T07:10:49.959Z,101430.69
2022-10-08T07:13:16.550Z,101433.84
2022-10-08T07:15:43.354Z,101438.16
2022-10-08T07:18:12.041Z,101445.25
2022-10-08T07:20:41.184Z,101448.38
2022-10-08T07:23:07.646Z,101447.03
2022-10-08T07:25:34.068Z,101455.31
2022-10-08T07:28:00.535Z,101458.41
2022-10-08T07:30:27.075Z,101472.88
2022-10-08T07:32:53.842Z,101468.97
2022-10-08T07:35:20.404Z,101466.94
2022-10-08T07:37:46.850Z,101474.00
2022-10-08T07:40:13.295Z,101480.28
2022-10-08T07:42:39.739Z,101482.75
2022-10-08T07:45:06.546Z,101492.72
2022-10-08T07:47:32.996Z,101493.47
2022-10-08T07:49:59.392Z,101483.94
2022-10-08T07:52:26.020Z,101495.56
2022-10-08T07:54:52.426Z,101499.25
2022-10-08T07:57:18.871Z,101496.84
2022-10-08T07:59:45.432Z,101507.22
2022-10-08T08:02:11.909Z,101511.28
2022-10-08T08:04:38.395Z,101512.69
2022-10-08T08:07:04.792Z,101519.78
2022-10-08T08:09:31.203Z,101513.03
2022-10-08T08:11:57.610Z,101529.72
2022-10-08T08:14:24.235Z,101528.41
2022-10-08T08:16:50.945Z,101535.81
2022-10-08T08:19:17.421Z,101534.38
2022-10-08T08:21:43.884Z,101539.31
2022-10-08T08:24:11.974Z,101552.34
2022-10-08T08:26:39.917Z,101552.97
2022-10-08T08:29:09.501Z,101561.03
2022-10-08T08:31:38.468Z,101547.00
2022-10-08T08:34:10.629Z,101555.13
2022-10-08T08:36:42.592Z,101565.94
2022-10-08T08:39:14.154Z,101560.28
2022-10-08T08:42:05.545Z,101564.78
2022-10-08T08:44:36.580Z,101567.53
2022-10-08T08:47:07.268Z,101578.75
2022-10-08T08:49:41.694Z,101571.72
2022-10-08T08:52:08.987Z,101573.16
2022-10-08T08:54:35.572Z,101573.19
2022-10-08T08:57:22.200Z,101575.03
2022-10-08T08:59:48.966Z,101573.97
2022-10-08T09:02:24.328Z,101579.91
2022-10-08T09:04:54.311Z,101591.97
2022-10-08T09:07:25.592Z,101583.63
2022-10-08T09:09:54.118Z,101583.34
2022-10-08T09:12:23.912Z,101576.47
2022-10-08T09:14:56.165Z,101583.75
2022-10-08T09:17:34.569Z,101592.81
2022-10-08T09:20:01.514Z,101586.53
2022-10-08T09:22:38.463Z,101588.03
2022-10-08T09:25:31.407Z,101584.38
2022-10-08T09:28:04.775Z,101580.50
2022-10-08T09:30:38.457Z,101595.50
2022-10-08T09:33:18.593Z,101599.88
2022-10-08T09:35:47.835Z,101614.38
2022-10-08T09:38:24.349Z,101599.38
2022-10-08T09:41:16.314Z,101593.84
2022-10-08T09:43:43.494Z,101601.09
2022-10-08T09:46:29.809Z,101599.44
2022-10-08T09:49:19.305Z,101602.06
2022-10-08T09:51:45.721Z,101610.59
2022-10-08T09:54:13.193Z,101613.22
2022-10-08T09:56:39.635Z,101615.22
2022-10-08T09:59:06.965Z,101623.56
2022-10-08T10:01:33.522Z,101628.31
2022-10-08T10:04:02.116Z,101633.84
2022-10-08T10:06:29.103Z,101628.72
2022-10-08T10:09:25.342Z,101634.59
2022-10-08T10:12:21.007Z,101638.56
2022-10-08T10:15:02.996Z,101638.28
2022-10-08T10:17:32.789Z,101636.13
2022-10-08T10:20:08.765Z,101639.81
2022-10-08T10:23:12.733Z,101643.72
2022-10-08T10:25:57.658Z,101644.75
2022-10-08T10:28:43.547Z,101641.47
2022-10-08T10:31:39.446Z,101662.78
2022-10-08T10:34:20.692Z,101652.13
2022-10-08T10:37:01.607Z,101658.25
2022-10-08T10:39:34.150Z,101654.91
2022-10-08T10:42:08.381Z,101648.66
2022-10-08T10:44:46.720Z,101649.03
2022-10-08T10:47:13.434Z,101651.34
2022-10-08T10:49:42.258Z,101650.94
2022-10-08T10:52:08.601Z,101658.41
2022-10-08T10:54:52.690Z,101657.16
2022-10-08T10:57:35.787Z,101661.50
2022-10-08T11:00:09.572Z,101651.75
2022-10-08T11:02:50.952Z,101660.25
2022-10-08T11:05:23.953Z,101664.03
2022-10-08T11:08:17.171Z,101666.50
2022-10-08T11:10:51.757Z,101661.50
2022-10-08T11:13:27.289Z,101663.34
2022-10-08T11:16:05.943Z,101661.09
2022-10-08T11:18:52.098Z,101664.53
2022-10-08T11:21:40.194Z,101651.16
2022-10-08T11:24:32.201Z,101661.13
2022-10-08T11:27:07.070Z,101658.44
2022-10-08T11:29:39.439Z,101659.47
2022-10-08T11:32:14.857Z,101665.13
2022-10-08T11:35:23.282Z,101647.84
2022-10-08T11:37:56.041Z,101667.69
2022-10-08T11:40:32.105Z,101682.81
2022-10-08T11:43:23.242Z,101660.69
2022-10-08T11:46:29.066Z,101669.25
2022-10-08T11:49:03.592Z,101663.56
2022-10-08T11:51:34.655Z,101668.34
2022-10-08T11:54:19.803Z,101667.84
2022-10-08T11:57:49.339Z,101669.06
2022-10-08T12:00:31.110Z,101679.09
2022-10-08T12:02:57.880Z,101686.00
2022-10-08T12:05:37.785Z,101685.91
2022-10-08T12:08:06.280Z,101689.66
2022-10-08T12:10:40.056Z,101685.34
2022-10-08T12:13:11.940Z,101692.00
2022-10-08T12:15:40.510Z,101695.19
2022-10-08T12:18:09.974Z,101693.69
2022-10-08T12:20:38.217Z,101697.19
2022-10-08T12:23:09.474Z,101698.25
2022-10-08T12:26:02.762Z,101709.66
2022-10-08T12:28:30.138Z,101705.88
2022-10-08T12:30:58.703Z,101704.53
2022-10-08T12:33:25.682Z,101708.75
2022-10-08T12:35:58.259Z,101728.88
2022-10-08T12:38:51.638Z,101737.03
2022-10-08T12:41:25.220Z,101720.34
2022-10-08T12:43:57.748Z,101731.72
2022-10-08T12:46:58.192Z,101736.19
2022-10-08T12:49:35.286Z,101742.53
2022-10-08T12:52:06.315Z,101746.63
2022-10-08T12:54:33.448Z,101748.56
2022-10-08T12:57:00.661Z,101740.59
2022-10-08T12:59:31.953Z,101746.44
2022-10-08T13:01:59.108Z,101741.50
2022-10-08T13:04:30.005Z,101745.13
2022-10-08T13:06:56.709Z,101745.34
2022-10-08T13:09:27.817Z,101734.06
2022-10-08T13:11:59.444Z,101741.81
2022-10-08T13:14:31.905Z,101739.97
2022-10-08T13:16:58.512Z,101742.16
2022-10-08T13:19:29.430Z,101736.53
2022-10-08T13:22:00.494Z,101729.25
2022-10-08T13:24:30.128Z,101739.25
2022-10-08T13:26:57.113Z,101748.53
2022-10-08T13:29:23.507Z,101784.81
2022-10-08T13:31:56.616Z,101785.41
2022-10-08T13:34:26.063Z,101776.69
2022-10-08T13:36:55.393Z,101762.09
2022-10-08T13:39:33.650Z,101759.50
2022-10-08T13:42:03.275Z,101769.22
2022-10-08T13:44:29.914Z,101770.22
2022-10-08T13:47:00.076Z,101766.41
2022-10-08T13:49:29.537Z,101767.19
2022-10-08T13:51:58.582Z,101768.69
2022-10-08T13:54:26.930Z,101761.25
2022-10-08T13:56:53.655Z,101764.75
2022-10-08T13:59:20.829Z,101759.56
2022-10-08T14:01:47.702Z,101767.28
2022-10-08T14:04:15.039Z,101772.91
2022-10-08T14:06:43.245Z,101769.53
2022-10-08T14:09:14.907Z,101764.97
2022-10-08T14:11:43.140Z,101770.78
2022-10-08T14:14:13.848Z,101774.91
2022-10-08T14:16:41.687Z,101769.34
2022-10-08T14:19:12.147Z,101781.38
2022-10-08T14:21:39.866Z,101784.72
2022-10-08T14:24:06.683Z,101793.91
2022-10-08T14:26:33.426Z,101788.38
2022-10-08T14:29:00.504Z,101798.06
2022-10-08T14:31:28.179Z,101789.81
2022-10-08T14:33:55.182Z,101798.97
2022-10-08T14:36:24.753Z,101796.91
2022-10-08T14:38:51.178Z,101797.97
2022-10-08T14:41:17.598Z,101806.56
2022-10-08T14:43:44.041Z,101805.13
2022-10-08T14:46:10.590Z,101813.47
2022-10-08T14:48:39.108Z,101808.88
2022-10-08T14:51:05.949Z,101812.88
2022-10-08T14:53:32.412Z,101822.75
2022-10-08T14:56:11.495Z,101828.19
2022-10-08T14:58:38.809Z,101827.22
2022-10-08T15:01:07.008Z,101832.09
2022-10-08T15:03:33.445Z,101834.34
2022-10-08T15:06:00.827Z,101844.31
2022-10-08T15:08:27.533Z,101844.97
2022-10-08T15:10:54.163Z,101841.31
2022-10-08T15:13:20.734Z,101853.59
2022-10-08T15:15:47.171Z,101845.03
2022-10-08T15:18:14.215Z,101850.94
2022-10-08T15:20:40.973Z,101855.91
2022-10-08T15:23:09.592Z,101857.59
2022-10-08T15:25:36.254Z,101853.28
2022-10-08T15:28:02.787Z,101865.16
2022-10-08T15:30:29.723Z,101863.66
2022-10-08T15:32:56.239Z,101865.22
2022-10-08T15:35:22.971Z,101863.66
2022-10-08T15:37:49.523Z,101873.34
2022-10-08T15:40:15.926Z,101873.16
2022-10-08T15:42:43.827Z,101885.31
2022-10-08T15:45:10.230Z,101874.16
2022-10-08T15:47:36.667Z,101886.84
2022-10-08T15:50:03.338Z,101877.91
2022-10-08T15:52:29.907Z,101884.75
2022-10-08T15:54:56.442Z,101893.63
2022-10-08T15:57:22.825Z,101893.97
2022-10-08T15:59:49.465Z,101896.50
2022-10-08T16:02:17.926Z,101905.50
2022-10-08T16:04:46.323Z,101892.66
2022-10-08T16:07:14.323Z,101902.03
2022-10-08T16:09:40.999Z,101908.16
2022-10-08T16:12:07.737Z,101913.63
2022-10-08T16:14:34.559Z,101914.38
2022-10-08T16:17:01.136Z,101926.72
2022-10-08T16:19:27.825Z,101920.31
2022-10-08T16:21:56.522Z,101928.16
2022-10-08T16:24:23.443Z,101930.13
2022-10-08T16:26:50.197Z,101923.34
2022-10-08T16:29:18.408Z,101936.44
2022-10-08T16:31:45.586Z,101938.38
2022-10-08T16:34:20.759Z,101943.53
2022-10-08T16:36:48.380Z,101954.22
2022-10-08T16:39:18.013Z,101956.69
2022-10-08T16:41:44.943Z,101961.41
2022-10-08T16:44:13.373Z,101963.44
2022-10-08T16:46:42.186Z,101972.47
2022-10-08T16:49:17.356Z,101968.50
2022-10-08T16:51:49.309Z,101982.97
2022-10-08T16:54:17.537Z,101986.81
2022-10-08T16:56:45.268Z,101988.56
2022-10-08T16:59:14.879Z,101989.78
2022-10-08T17:01:45.978Z,101986.09
2022-10-08T17:04:14.086Z,101993.13
2022-10-08T17:06:41.331Z,102000.00
2022-10-08T17:09:08.230Z,102003.91
2022-10-08T17:11:35.088Z,101997.72
2022-10-08T17:14:02.237Z,102008.09
2022-10-08T17:16:30.365Z,102014.78
2022-10-08T17:18:58.707Z,102017.94
2022-10-08T17:21:25.858Z,102018.41
2022-10-08T17:23:52.352Z,102013.06
2022-10-08T17:26:21.720Z,102022.63
2022-10-08T17:28:49.709Z,102024.53
2022-10-08T17:31:21.892Z,102027.38
2022-10-08T17:33:48.587Z,102030.06
2022-10-08T17:36:27.142Z,102037.81
2022-10-08T17:38:56.936Z,102034.00
2022-10-08T17:41:24.816Z,102043.66
2022-10-08T17:43:52.241Z,102047.41
2022-10-08T17:46:25.488Z,102053.09
2022-10-08T17:48:52.139Z,102050.06
2022-10-08T17:51:21.342Z,102059.38
2022-10-08T17:53:53.179Z,102058.75
2022-10-08T17:56:19.983Z,102060.38
2022-10-08T17:58:46.668Z,102065.75
2022-10-08T18:01:24.852Z,102068.13
2022-10-08T18:03:53.631Z,102080.31
2022-10-08T18:06:20.753Z,102085.63
2022-10-08T18:08:47.124Z,102080.41
2022-10-08T18:11:15.738Z,102084.31
2022-10-08T18:13:42.480Z,102085.94
2022-10-08T18:16:12.028Z,102091.28
2022-10-08T18:18:39.095Z,102082.84
2022-10-08T18:21:06.135Z,102085.22
2022-10-08T18:23:34.077Z,102095.53
2022-10-08T18:26:11.630Z,102093.63
2022-10-08T18:28:38.188Z,102100.63
2022-10-08T18:31:09.259Z,102092.91
2022-10-08T18:33:37.573Z,102100.94
2022-10-08T18:36:19.003Z,102103.56
2022-10-08T18:38:53.125Z,102109.69
2022-10-08T18:41:22.939Z,102113.53
2022-10-08T18:43:49.687Z,102112.81
2022-10-08T18:46:18.200Z,102111.19
2022-10-08T18:48:45.153Z,102120.00
2022-10-08T18:51:14.054Z,102126.47
2022-10-08T18:53:41.949Z,102128.91
2022-10-08T18:56:11.130Z,102135.06
2022-10-08T18:58:38.345Z,102136.66
2022-10-08T19:01:05.829Z,102141.25
2022-10-08T19:03:32.479Z,102146.97
2022-10-08T19:05:59.045Z,102148.97
2022-10-08T19:08:25.566Z,102149.78
2022-10-08T19:10:52.523Z,102155.13
2022-10-08T19:13:19.885Z,102150.91
2022-10-08T19:15:46.459Z,102146.78
2022-10-08T19:18:12.946Z,102152.16
2022-10-08T19:20:39.355Z,102154.09
2022-10-08T19:23:06.212Z,102148.41
2022-10-08T19:25:34.947Z,102147.69
2022-10-08T19:28:01.676Z,102152.25
2022-10-08T19:30:32.995Z,102153.03
2022-10-08T19:32:59.650Z,102156.16
2022-10-08T19:35:26.087Z,102156.56
2022-10-08T19:37:52.554Z,102158.81
2022-10-08T19:40:19.014Z,102151.59
2022-10-08T19:42:45.823Z,102169.53
2022-10-08T19:45:13.314Z,102167.25
2022-10-08T19:47:39.744Z,102172.97
2022-10-08T19:50:06.558Z,102173.75
2022-10-08T19:52:33.163Z,102174.88
2022-10-08T19:54:59.768Z,102168.44
2022-10-08T19:57:26.177Z,102174.91
2022-10-08T19:59:52.617Z,102179.84
2022-10-08T20:02:19.118Z,102182.50
2022-10-08T20:04:46.728Z,102188.28
2022-10-08T20:07:13.343Z,102196.28
2022-10-08T20:09:39.921Z,102187.09
2022-10-08T20:12:06.377Z,102192.03
2022-10-08T20:14:33.086Z,102190.53
2022-10-08T20:16:59.500Z,102196.63
2022-10-08T20:19:25.911Z,102210.03
2022-10-08T20:21:54.632Z,102218.81
2022-10-08T20:24:21.662Z,102215.00
2022-10-08T20:26:50.994Z,102224.94
2022-10-08T20:29:20.065Z,102226.44
2022-10-08T20:31:49.603Z,102229.50
2022-10-08T20:34:27.037Z,102221.50
2022-10-08T20:36:53.916Z,102229.50
2022-10-08T20:39:21.801Z,102235.66
2022-10-08T20:41:48.693Z,102239.84
2022-10-08T20:44:15.185Z,102231.03
2022-10-08T20:46:41.788Z,102234.84
2022-10-08T20:49:10.941Z,102237.53
2022-10-08T20:51:39.140Z,102252.00
2022-10-08T20:54:07.906Z,102246.28
2022-10-08T20:56:39.744Z,102243.97
2022-10-08T20:59:11.609Z,102247.00
2022-10-08T21:01:38.784Z,102246.63
2022-10-08T21:04:06.265Z,102247.78
2022-10-08T21:06:41.162Z,102251.53
2022-10-08T21:09:08.042Z,102244.63
2022-10-08T21:11:35.201Z,102249.94
2022-10-08T21:14:03.586Z,102254.50
2022-10-08T21:16:32.850Z,102254.09
2022-10-08T21:19:01.106Z,102265.81
2022-10-08T21:21:29.200Z,102255.59
2022-10-08T21:23:56.049Z,102258.25
2022-10-08T21:26:25.249Z,102259.72
2022-10-08T21:28:55.037Z,102253.59
2022-10-08T21:31:21.914Z,102251.25
2022-10-08T21:33:50.286Z,102255.03
2022-10-08T21:36:22.263Z,102258.44
2022-10-08T21:38:49.112Z,102256.63
2022-10-08T21:41:17.866Z,102263.34
2022-10-08T21:43:49.183Z,102255.03
2022-10-08T21:46:18.355Z,102254.22
2022-10-08T21:48:45.298Z,102262.59
2022-10-08T21:51:17.604Z,102255.00
2022-10-08T21:53:46.911Z,102269.41
2022-10-08T21:56:16.691Z,102263.22
2022-10-08T21:58:44.870Z,102266.34
2022-10-08T22:01:38.129Z,102265.63
2022-10-08T22:04:07.321Z,102272.50
2022-10-08T22:06:37.383Z,102273.19
2022-10-08T22:09:05.869Z,102275.88
2022-10-08T22:11:32.457Z,102270.81
2022-10-08T22:13:58.849Z,102265.06
2022-10-08T22:16:26.109Z,102262.63
2022-10-08T22:18:53.095Z,102272.50
2022-10-08T22:21:22.112Z,102267.25
2022-10-08T22:23:49.435Z,102268.31
2022-10-08T22:26:24.489Z,102266.38
2022-10-08T22:28:51.081Z,102271.38
2022-10-08T22:31:18.600Z,102276.06
2022-10-08T22:33:45.105Z,102276.69
2022-10-08T22:36:14.367Z,102270.97
2022-10-08T22:38:41.872Z,102268.25
2022-10-08T22:41:16.276Z,102274.72
2022-10-08T22:43:43.342Z,102275.88
2022-10-08T22:46:12.680Z,102275.25
2022-10-08T22:48:39.348Z,102283.72
2022-10-08T22:51:08.497Z,102282.22
2022-10-08T22:53:35.339Z,102287.44
2022-10-08T22:56:06.680Z,102286.75
2022-10-08T22:58:34.256Z,102279.44
2022-10-08T23:01:11.657Z,102291.19
2022-10-08T23:03:38.523Z,102286.59
2022-10-08T23:06:14.615Z,102283.94
2022-10-08T23:08:41.429Z,102288.63
2022-10-08T23:11:07.889Z,102286.31
2022-10-08T23:13:34.906Z,102284.78
2022-10-08T23:16:04.603Z,102290.78
2022-10-08T23:18:32.848Z,102292.25
2022-10-08T23:21:04.365Z,102288.47
2022-10-08T23:23:31.467Z,102289.28
2022-10-08T23:26:00.032Z,102294.16
2022-10-08T23:28:26.983Z,102292.25
2022-10-08T23:30:53.611Z,102293.59
2022-10-08T23:33:21.291Z,102302.06
2022-10-08T23:35:55.575Z,102291.47
2022-10-08T23:38:22.761Z,102303.28
2022-10-08T23:40:52.215Z,102306.34
2022-10-08T23:43:18.778Z,102308.16
2022-10-08T23:45:45.223Z,102303.22
2022-10-08T23:48:11.730Z,102317.88
2022-10-08T23:50:38.722Z,102304.56
2022-10-08T23:53:05.298Z,102301.19
2022-10-08T23:55:31.909Z,102309.06
2022-10-08T23:57:58.347Z,102307.06
